Time;durP1;ratioP1;P1;durP2;ratioP2;P2;SDS_P1;SDS_P2;PMS_P1;PMS_P2;Temp;Humidity;BMP_temperature;BMP_pressure;BME280_temperature;BME280_humidity;BME280_pressure;Samples;Min_cycle;Max_cycle;Signal;HPM_P1;HPM_P2
2022/04/21 00:00:04;;;;;;;3.70;1.50;;;;;;;;;;5071849;28;20120;-51
2022/04/21 00:02:30;;;;;;;2.03;1.50;;;;;;;;;;5070767;28;20474;-52
2022/04/21 00:04:56;;;;;;;2.63;1.33;;;;;;;;;;5071809;28;20021;-51
2022/04/21 00:07:22;;;;;;;1.17;1.00;;;;;;;;;;5074733;28;20106;-51
2022/04/21 00:09:49;;;;;;;1.65;1.20;;;;;;;;;;5075754;28;20036;-51
2022/04/21 00:12:15;;;;;;;1.58;1.05;;;;;;;;;;5074717;28;20028;-49
2022/04/21 00:14:41;;;;;;;2.10;1.20;;;;;;;;;;5075549;28;20024;-49
2022/04/21 00:17:10;;;;;;;3.38;1.38;;;;;;;;;;5075121;28;20089;-58
2022/04/21 00:19:37;;;;;;;3.55;1.05;;;;;;;;;;5075434;28;20017;-50
2022/04/21 00:24:48;;;;;;;1.48;1.10;;;;;;;;;;5075497;28;20504;-51
2022/04/21 00:27:14;;;;;;;1.38;1.00;;;;;;;;;;5074248;28;20080;-49
2022/04/21 00:29:40;;;;;;;2.75;1.17;;;;;;;;;;5074209;28;20032;-51
2022/04/21 00:32:06;;;;;;;1.42;0.90;;;;;;;;;;5073354;28;20115;-59
2022/04/21 00:34:33;;;;;;;1.50;1.05;;;;;;;;;;5074851;28;20033;-50
2022/04/21 00:36:59;;;;;;;2.65;1.20;;;;;;;;;;5074914;28;20443;-51
2022/04/21 00:39:25;;;;;;;1.70;1.20;;;;;;;;;;5074095;28;20036;-50
2022/04/21 00:41:58;;;;;;;1.45;1.08;;;;;;;;;;5075155;28;20028;-49
2022/04/21 00:44:24;;;;;;;1.27;1.00;;;;;;;;;;5074082;28;20107;-54
2022/04/21 00:46:51;;;;;;;1.75;0.90;;;;;;;;;;5075335;28;20479;-50
2022/04/21 00:49:18;;;;;;;1.63;1.20;;;;;;;;;;5072666;28;20055;-51
2022/04/21 00:51:45;;;;;;;1.75;1.10;;;;;;;;;;5074745;28;20034;-49
2022/04/21 00:54:11;;;;;;;2.47;1.00;;;;;;;;;;5072901;28;20031;-57
2022/04/21 00:56:37;;;;;;;1.17;0.93;;;;;;;;;;5073475;28;20032;-50
2022/04/21 00:59:06;;;;;;;1.23;0.98;;;;;;;;;;5074379;28;20386;-51
2022/04/21 01:04:19;;;;;;;1.63;1.15;;;;;;;;;;5074094;28;20091;-51
2022/04/21 01:06:45;;;;;;;2.33;1.02;;;;;;;;;;5073376;28;20036;-53
2022/04/21 01:09:11;;;;;;;1.52;0.95;;;;;;;;;;5073578;28;20445;-60
2022/04/21 01:11:38;;;;;;;1.30;1.10;;;;;;;;;;5074356;28;20116;-53
2022/04/21 01:14:04;;;;;;;1.00;0.85;;;;;;;;;;5074295;28;20089;-50
2022/04/21 01:16:30;;;;;;;2.47;1.30;;;;;;;;;;5073149;28;20085;-50
2022/04/21 01:18:57;;;;;;;1.27;0.95;;;;;;;;;;5074526;28;20033;-49
2022/04/21 01:21:23;;;;;;;1.65;1.20;;;;;;;;;;5073501;28;20063;-50
2022/04/21 01:23:49;;;;;;;3.40;1.05;;;;;;;;;;5074101;28;20032;-53
2022/04/21 01:26:15;;;;;;;1.80;0.98;;;;;;;;;;5073179;28;20381;-50
2022/04/21 01:28:41;;;;;;;1.35;0.90;;;;;;;;;;5074290;28;20035;-50
2022/04/21 01:31:07;;;;;;;2.88;1.55;;;;;;;;;;5074280;28;20517;-53
2022/04/21 01:33:33;;;;;;;2.13;1.27;;;;;;;;;;5072865;28;20020;-51
2022/04/21 01:35:59;;;;;;;1.40;0.95;;;;;;;;;;5073944;28;20036;-52
2022/04/21 01:41:11;;;;;;;1.30;1.00;;;;;;;;;;5073697;28;20054;-58
2022/04/21 01:43:37;;;;;;;2.10;1.10;;;;;;;;;;5073434;28;20029;-52
2022/04/21 01:46:03;;;;;;;0.90;0.70;;;;;;;;;;5073947;28;20027;-53
2022/04/21 01:48:30;;;;;;;1.45;1.13;;;;;;;;;;5072799;28;20035;-52
2022/04/21 01:50:56;;;;;;;1.45;1.10;;;;;;;;;;5073681;28;20032;-53
2022/04/21 01:53:22;;;;;;;1.67;1.23;;;;;;;;;;5071755;28;20028;-53
2022/04/21 01:55:48;;;;;;;2.05;1.13;;;;;;;;;;5072284;28;20020;-54
2022/04/21 01:58:14;;;;;;;1.58;1.45;;;;;;;;;;5071380;28;20036;-59
2022/04/21 02:00:40;;;;;;;2.25;1.23;;;;;;;;;;5072273;28;20371;-51
2022/04/21 02:03:07;;;;;;;1.73;1.17;;;;;;;;;;5072041;28;20025;-50
2022/04/21 02:05:33;;;;;;;1.63;1.00;;;;;;;;;;5071448;28;20042;-52
2022/04/21 02:08:00;;;;;;;1.80;1.30;;;;;;;;;;5071660;28;20118;-50
2022/04/21 02:10:26;;;;;;;1.38;1.10;;;;;;;;;;5072020;28;20040;-49
2022/04/21 02:12:52;;;;;;;1.30;0.90;;;;;;;;;;5073264;28;20377;-50
2022/04/21 02:15:19;;;;;;;3.15;1.38;;;;;;;;;;5072248;28;20385;-51
2022/04/21 02:17:45;;;;;;;1.33;1.00;;;;;;;;;;5073128;28;20101;-50
2022/04/21 02:20:14;;;;;;;1.15;1.00;;;;;;;;;;5072634;28;20028;-59
2022/04/21 02:22:41;;;;;;;1.92;1.23;;;;;;;;;;5072838;28;20025;-51
2022/04/21 02:25:08;;;;;;;1.65;1.02;;;;;;;;;;5071770;28;20501;-52
2022/04/21 02:27:38;;;;;;;1.17;0.88;;;;;;;;;;5071554;28;20627;-54
2022/04/21 02:30:07;;;;;;;1.38;0.80;;;;;;;;;;5072950;28;20036;-53
2022/04/21 02:32:34;;;;;;;1.08;0.80;;;;;;;;;;5072222;28;20104;-52
2022/04/21 02:35:00;;;;;;;3.80;1.00;;;;;;;;;;5072817;28;20108;-50
2022/04/21 02:37:26;;;;;;;1.95;1.10;;;;;;;;;;5072186;28;20027;-51
2022/04/21 02:39:52;;;;;;;1.17;0.98;;;;;;;;;;5072939;28;20385;-52
2022/04/21 02:42:21;;;;;;;1.45;0.90;;;;;;;;;;5072047;28;20024;-50
2022/04/21 02:44:48;;;;;;;2.10;1.08;;;;;;;;;;5072280;28;20031;-49
2022/04/21 02:47:14;;;;;;;1.55;1.13;;;;;;;;;;5072003;28;20028;-58
2022/04/21 02:49:45;;;;;;;1.30;1.08;;;;;;;;;;5072658;28;20128;-49
2022/04/21 02:52:11;;;;;;;1.75;1.00;;;;;;;;;;5072452;28;20377;-50
2022/04/21 02:57:22;;;;;;;1.15;0.93;;;;;;;;;;5073246;28;20123;-50
2022/04/21 02:59:55;;;;;;;3.05;0.80;;;;;;;;;;5073020;28;20052;-52
2022/04/21 03:02:22;;;;;;;1.35;1.10;;;;;;;;;;5071586;28;20547;-51
2022/04/21 03:04:49;;;;;;;1.30;0.82;;;;;;;;;;5071665;28;20081;-52
2022/04/21 03:07:16;;;;;;;1.10;0.77;;;;;;;;;;5071981;28;20432;-58
2022/04/21 03:09:42;;;;;;;1.45;1.13;;;;;;;;;;5071817;28;20028;-50
2022/04/21 03:12:09;;;;;;;1.20;1.05;;;;;;;;;;5071256;28;20382;-51
2022/04/21 03:14:36;;;;;;;1.05;0.98;;;;;;;;;;5071091;28;20020;-50
2022/04/21 03:17:02;;;;;;;1.25;1.10;;;;;;;;;;5072209;28;20029;-49
2022/04/21 03:19:28;;;;;;;1.38;1.10;;;;;;;;;;5071467;28;20033;-49
2022/04/21 03:24:39;;;;;;;2.42;1.10;;;;;;;;;;5070575;28;20097;-50
2022/04/21 03:27:05;;;;;;;1.67;1.10;;;;;;;;;;5071927;28;20486;-52
2022/04/21 03:29:32;;;;;;;1.00;0.80;;;;;;;;;;5071349;28;20347;-53
2022/04/21 03:31:58;;;;;;;1.63;0.80;;;;;;;;;;5071903;28;20025;-52
2022/04/21 03:34:25;;;;;;;1.95;1.30;;;;;;;;;;5070990;28;20033;-53
2022/04/21 03:36:51;;;;;;;1.40;0.75;;;;;;;;;;5072295;28;20130;-53
2022/04/21 03:39:18;;;;;;;1.33;0.90;;;;;;;;;;5071494;28;20503;-58
2022/04/21 03:41:44;;;;;;;1.00;0.77;;;;;;;;;;5071489;28;20067;-51
2022/04/21 03:44:13;;;;;;;1.48;0.93;;;;;;;;;;5071832;28;20048;-51
2022/04/21 03:46:39;;;;;;;1.77;0.98;;;;;;;;;;5070036;28;20029;-50
2022/04/21 03:49:06;;;;;;;1.58;1.10;;;;;;;;;;5070349;28;20036;-50
2022/04/21 03:51:32;;;;;;;1.70;0.90;;;;;;;;;;5071286;28;20055;-51
2022/04/21 03:53:58;;;;;;;1.45;1.00;;;;;;;;;;5071557;28;20013;-49
2022/04/21 03:56:24;;;;;;;1.10;1.00;;;;;;;;;;5071071;28;20036;-50
2022/04/21 03:58:50;;;;;;;1.80;1.10;;;;;;;;;;5071553;28;20043;-49
2022/04/21 04:01:16;;;;;;;1.20;0.90;;;;;;;;;;5071709;28;20037;-53
2022/04/21 04:03:43;;;;;;;1.30;1.00;;;;;;;;;;5070486;28;20021;-47
2022/04/21 04:11:38;;;;;;;1.48;1.10;;;;;;;;;;5069010;28;20082;-52
2022/04/21 04:14:05;;;;;;;1.95;0.90;;;;;;;;;;5070962;28;20094;-50
2022/04/21 04:16:33;;;;;;;0.88;0.73;;;;;;;;;;5067654;28;20377;-51
2022/04/21 04:19:00;;;;;;;1.40;0.90;;;;;;;;;;5071247;28;20412;-50
2022/04/21 04:21:26;;;;;;;2.92;0.90;;;;;;;;;;5070459;28;20025;-48
2022/04/21 04:23:51;;;;;;;1.20;0.80;;;;;;;;;;5068241;28;20024;-48
2022/04/21 04:26:17;;;;;;;0.93;0.90;;;;;;;;;;5070935;28;20048;-48
2022/04/21 04:28:43;;;;;;;1.15;0.90;;;;;;;;;;5070433;28;20029;-50
2022/04/21 04:31:09;;;;;;;1.13;1.02;;;;;;;;;;5071094;28;20033;-50
2022/04/21 04:33:35;;;;;;;2.55;1.23;;;;;;;;;;5069137;28;20111;-51
2022/04/21 04:36:01;;;;;;;1.00;0.80;;;;;;;;;;5071061;28;20056;-49
2022/04/21 04:38:27;;;;;;;1.25;1.10;;;;;;;;;;5069852;28;20036;-49
2022/04/21 04:40:53;;;;;;;2.22;1.10;;;;;;;;;;5071114;28;20056;-51
2022/04/21 04:43:19;;;;;;;1.23;0.95;;;;;;;;;;5071069;28;20043;-51
2022/04/21 04:46:46;;;;;;;1.33;0.77;;;;;;;;;;5070522;28;20017;-50
2022/04/21 04:48:41;;;;;;;1.23;0.80;;;;;;;;;;5060978;28;20201;-52
2022/04/21 04:51:07;;;;;;;0.95;0.88;;;;;;;;;;5071571;28;20051;-51
2022/04/21 04:53:33;;;;;;;1.45;0.73;;;;;;;;;;5072386;28;20461;-51
2022/04/21 04:55:59;;;;;;;5.55;1.73;;;;;;;;;;5075351;28;20166;-52
2022/04/21 04:58:25;;;;;;;1.02;0.77;;;;;;;;;;5073887;28;20486;-60
2022/04/21 05:00:51;;;;;;;1.15;0.88;;;;;;;;;;5074802;28;20111;-52
2022/04/21 05:03:19;;;;;;;1.80;1.13;;;;;;;;;;5074249;28;20099;-53
2022/04/21 05:05:45;;;;;;;1.13;0.90;;;;;;;;;;5072739;28;20020;-50
2022/04/21 05:08:11;;;;;;;2.25;1.38;;;;;;;;;;5074603;28;20096;-50
2022/04/21 05:10:38;;;;;;;2.60;1.08;;;;;;;;;;5073605;28;20435;-54
2022/04/21 05:13:04;;;;;;;2.03;0.98;;;;;;;;;;5074049;28;20028;-49
2022/04/21 05:15:30;;;;;;;3.78;1.70;;;;;;;;;;5073525;28;20032;-51
2022/04/21 05:17:56;;;;;;;4.53;1.20;;;;;;;;;;5074130;28;20535;-52
2022/04/21 05:20:22;;;;;;;3.13;1.40;;;;;;;;;;5074625;28;20039;-52
2022/04/21 05:22:50;;;;;;;5.38;1.30;;;;;;;;;;5073265;28;20030;-49
2022/04/21 05:25:16;;;;;;;3.78;1.73;;;;;;;;;;5074271;28;20079;-48
2022/04/21 05:27:42;;;;;;;4.72;2.10;;;;;;;;;;5071097;28;20083;-52
2022/04/21 05:33:09;;;;;;;6.50;3.80;;;;;;;;;;5055746;28;20401;-52
2022/04/21 05:35:35;;;;;;;5.32;3.03;;;;;;;;;;5072890;28;20466;-51
2022/04/21 05:38:01;;;;;;;5.80;2.97;;;;;;;;;;5074146;28;20040;-50
2022/04/21 05:40:27;;;;;;;6.47;2.90;;;;;;;;;;5073058;28;20435;-59
2022/04/21 05:42:55;;;;;;;5.28;2.40;;;;;;;;;;5073785;28;20033;-52
2022/04/21 05:45:21;;;;;;;4.95;1.75;;;;;;;;;;5074045;28;20036;-53
2022/04/21 05:47:48;;;;;;;3.78;2.00;;;;;;;;;;5072819;28;20108;-50
2022/04/21 05:50:14;;;;;;;3.17;1.52;;;;;;;;;;5073640;28;20036;-50
2022/04/21 05:52:41;;;;;;;2.85;1.75;;;;;;;;;;5072822;28;20032;-49
2022/04/21 05:55:07;;;;;;;2.85;1.83;;;;;;;;;;5073897;28;20039;-49
2022/04/21 05:57:35;;;;;;;2.72;1.65;;;;;;;;;;5072391;28;20040;-51
2022/04/21 06:00:01;;;;;;;3.17;1.73;;;;;;;;;;5073398;28;20024;-49
2022/04/21 06:02:27;;;;;;;5.38;2.05;;;;;;;;;;5073092;28;20085;-59
2022/04/21 06:04:58;;;;;;;3.55;2.25;;;;;;;;;;5072824;28;20097;-48
2022/04/21 06:07:24;;;;;;;4.07;1.63;;;;;;;;;;5073432;28;20024;-49
2022/04/21 06:09:50;;;;;;;4.53;1.63;;;;;;;;;;5072519;28;20082;-48
2022/04/21 06:12:17;;;;;;;5.32;2.30;;;;;;;;;;5072561;28;20465;-55
2022/04/21 06:14:45;;;;;;;4.50;1.38;;;;;;;;;;5071606;28;20024;-49
2022/04/21 06:17:11;;;;;;;4.63;1.63;;;;;;;;;;5072883;28;20070;-49
2022/04/21 06:19:37;;;;;;;4.22;1.70;;;;;;;;;;5072201;28;20059;-53
2022/04/21 06:22:03;;;;;;;2.38;1.35;;;;;;;;;;5073061;28;20028;-51
2022/04/21 06:24:29;;;;;;;3.22;1.50;;;;;;;;;;5072371;28;20036;-58
2022/04/21 06:26:55;;;;;;;2.33;1.40;;;;;;;;;;5071195;28;20053;-54
2022/04/21 06:29:21;;;;;;;3.78;1.30;;;;;;;;;;5072588;28;20496;-50
2022/04/21 06:31:47;;;;;;;5.97;2.08;;;;;;;;;;5071787;28;20089;-49
2022/04/21 06:34:13;;;;;;;3.38;1.30;;;;;;;;;;5072573;28;20035;-52
2022/04/21 06:36:39;;;;;;;3.05;1.40;;;;;;;;;;5070785;28;20377;-53
2022/04/21 06:39:05;;;;;;;2.05;1.33;;;;;;;;;;5072560;28;20028;-49
2022/04/21 06:41:31;;;;;;;2.90;1.40;;;;;;;;;;5070882;28;20373;-58
2022/04/21 06:49:27;;;;;;;2.70;1.20;;;;;;;;;;5076473;28;20047;-49
2022/04/21 06:51:53;;;;;;;2.28;1.38;;;;;;;;;;5080784;28;20023;-53
2022/04/21 06:54:20;;;;;;;2.70;1.40;;;;;;;;;;5077373;28;20402;-52
2022/04/21 06:56:48;;;;;;;2.17;1.25;;;;;;;;;;5079562;28;20062;-52
2022/04/21 06:59:18;;;;;;;3.17;1.48;;;;;;;;;;5072053;28;20021;-50
2022/04/21 07:01:46;;;;;;;2.75;1.35;;;;;;;;;;5071632;28;20366;-51
2022/04/21 07:04:13;;;;;;;5.72;1.20;;;;;;;;;;5072140;28;20483;-52
2022/04/21 07:06:39;;;;;;;2.35;1.58;;;;;;;;;;5071648;28;20377;-48
2022/04/21 07:09:05;;;;;;;2.90;1.73;;;;;;;;;;5072368;28;20036;-48
2022/04/21 07:11:31;;;;;;;2.40;1.23;;;;;;;;;;5071939;28;20393;-57
2022/04/21 07:13:58;;;;;;;1.73;1.00;;;;;;;;;;5066153;28;20032;-49
2022/04/21 07:16:25;;;;;;;2.92;1.83;;;;;;;;;;5052331;28;20039;-52
2022/04/21 07:18:53;;;;;;;2.55;1.20;;;;;;;;;;5054194;28;20642;-49
2022/04/21 07:21:19;;;;;;;1.95;1.48;;;;;;;;;;5072115;28;20031;-52
2022/04/21 07:23:45;;;;;;;2.08;1.60;;;;;;;;;;5071144;28;20486;-51
2022/04/21 07:26:11;;;;;;;2.85;1.13;;;;;;;;;;5071753;28;20377;-53
2022/04/21 07:28:38;;;;;;;5.40;1.17;;;;;;;;;;5073072;28;20037;-53
2022/04/21 07:31:05;;;;;;;1.67;1.10;;;;;;;;;;5062183;28;20104;-52
2022/04/21 07:33:30;;;;;;;2.17;1.27;;;;;;;;;;5054390;28;20032;-49
2022/04/21 07:35:57;;;;;;;1.88;1.00;;;;;;;;;;5071571;28;20033;-50
2022/04/21 07:38:23;;;;;;;2.65;1.20;;;;;;;;;;5071999;28;20047;-50
2022/04/21 07:40:52;;;;;;;1.48;1.10;;;;;;;;;;5053016;28;20056;-49
2022/04/21 07:43:19;;;;;;;1.67;1.02;;;;;;;;;;5060765;28;20497;-53
2022/04/21 07:45:45;;;;;;;1.52;1.00;;;;;;;;;;5052126;28;20155;-50
2022/04/21 07:48:11;;;;;;;2.25;1.48;;;;;;;;;;5067231;28;20037;-52
2022/04/21 07:50:37;;;;;;;2.58;1.40;;;;;;;;;;5054748;28;20057;-58
2022/04/21 07:53:13;;;;;;;2.03;1.15;;;;;;;;;;5051333;28;20108;-51
2022/04/21 07:55:38;;;;;;;1.50;1.05;;;;;;;;;;5069334;28;20033;-55
2022/04/21 07:58:05;;;;;;;1.60;1.10;;;;;;;;;;5072121;28;20440;-53
2022/04/21 08:00:31;;;;;;;1.83;1.10;;;;;;;;;;5056635;28;20025;-52
2022/04/21 08:02:57;;;;;;;2.22;1.10;;;;;;;;;;5052548;28;20527;-52
2022/04/21 08:05:23;;;;;;;1.92;1.20;;;;;;;;;;5066973;28;20027;-52
2022/04/21 08:07:50;;;;;;;2.28;1.17;;;;;;;;;;5070540;28;20040;-53
2022/04/21 08:10:16;;;;;;;1.77;1.08;;;;;;;;;;5071562;28;20028;-52
2022/04/21 08:12:43;;;;;;;2.65;0.95;;;;;;;;;;5062036;28;20057;-50
2022/04/21 08:15:11;;;;;;;4.53;1.30;;;;;;;;;;5063414;28;20461;-51
2022/04/21 08:17:37;;;;;;;2.72;1.13;;;;;;;;;;5070698;28;20508;-59
2022/04/21 08:20:07;;;;;;;2.15;1.75;;;;;;;;;;5070614;28;20024;-60
2022/04/21 08:22:33;;;;;;;3.13;1.05;;;;;;;;;;5068927;28;20033;-59
2022/04/21 08:33:14;;;;;;;5.38;1.63;;;;;;;;;;5068336;28;20058;-59
2022/04/21 08:35:40;;;;;;;3.95;1.58;;;;;;;;;;5073572;28;20032;-59
2022/04/21 08:38:07;;;;;;;3.67;1.23;;;;;;;;;;5074495;28;20120;-59
2022/04/21 08:40:35;;;;;;;5.57;1.25;;;;;;;;;;5075242;28;20016;-59
2022/04/21 08:43:03;;;;;;;3.13;1.27;;;;;;;;;;5072735;28;20453;-60
2022/04/21 08:45:30;;;;;;;2.00;1.00;;;;;;;;;;5059989;28;20025;-59
2022/04/21 08:47:58;;;;;;;3.25;1.30;;;;;;;;;;5073829;28;20035;-58
2022/04/21 08:50:25;;;;;;;3.13;1.08;;;;;;;;;;5074558;28;20029;-59
2022/04/21 08:52:52;;;;;;;3.42;1.50;;;;;;;;;;5055007;28;20453;-59
2022/04/21 08:55:18;;;;;;;3.25;1.48;;;;;;;;;;5054776;28;20052;-59
2022/04/21 08:57:44;;;;;;;3.10;1.30;;;;;;;;;;5072990;28;20024;-59
2022/04/21 09:00:10;;;;;;;1.85;1.10;;;;;;;;;;5074426;28;20355;-60
2022/04/21 09:02:41;;;;;;;2.05;1.23;;;;;;;;;;5069046;28;20115;-59
2022/04/21 09:05:08;;;;;;;1.83;1.27;;;;;;;;;;5054016;28;20497;-59
2022/04/21 09:07:43;;;;;;;3.05;1.40;;;;;;;;;;5071871;28;20517;-58
2022/04/21 09:10:11;;;;;;;1.27;1.00;;;;;;;;;;5074009;28;20062;-58
2022/04/21 09:12:40;;;;;;;3.28;1.02;;;;;;;;;;5074120;28;20016;-58
2022/04/21 09:15:12;;;;;;;1.60;1.00;;;;;;;;;;5061714;28;20063;-59
2022/04/21 09:17:40;;;;;;;2.33;1.15;;;;;;;;;;5054832;28;20474;-59
2022/04/21 09:20:06;;;;;;;3.28;1.10;;;;;;;;;;5070070;28;20028;-59
2022/04/21 09:22:33;;;;;;;1.30;1.10;;;;;;;;;;5067305;28;20483;-58
2022/04/21 09:24:59;;;;;;;1.83;1.35;;;;;;;;;;5068681;28;20024;-59
2022/04/21 09:27:38;;;;;;;1.80;1.30;;;;;;;;;;5072667;28;20048;-59
2022/04/21 09:30:04;;;;;;;1.92;1.23;;;;;;;;;;5070526;28;20656;-59
2022/04/21 09:32:30;;;;;;;2.13;1.13;;;;;;;;;;5073140;28;20082;-60
2022/04/21 09:34:57;;;;;;;1.85;1.20;;;;;;;;;;5072295;28;20028;-59
2022/04/21 09:37:23;;;;;;;1.88;1.30;;;;;;;;;;5073102;28;20211;-59
2022/04/21 09:39:53;;;;;;;2.08;1.23;;;;;;;;;;5073602;28;20390;-59
2022/04/21 09:42:29;;;;;;;1.35;1.08;;;;;;;;;;5072682;28;20020;-59
2022/04/21 09:47:54;;;;;;;2.33;1.10;;;;;;;;;;5056170;28;20044;-59
2022/04/21 09:50:21;;;;;;;2.00;1.13;;;;;;;;;;5073636;28;20501;-59
2022/04/21 09:52:48;;;;;;;2.38;1.25;;;;;;;;;;5060687;28;20037;-59
2022/04/21 09:55:25;;;;;;;2.65;0.80;;;;;;;;;;5069775;28;20052;-59
2022/04/21 09:57:52;;;;;;;2.55;1.08;;;;;;;;;;5072362;28;20029;-57
2022/04/21 10:00:21;;;;;;;1.60;0.80;;;;;;;;;;5073493;28;20024;-56
2022/04/21 10:02:49;;;;;;;2.17;1.15;;;;;;;;;;5072023;28;20079;-58
2022/04/21 10:05:15;;;;;;;1.70;0.90;;;;;;;;;;5073670;28;20381;-56
2022/04/21 10:07:42;;;;;;;2.95;1.17;;;;;;;;;;5073018;28;20354;-56
2022/04/21 10:10:08;;;;;;;3.63;1.20;;;;;;;;;;5075395;28;20024;-55
2022/04/21 10:12:34;;;;;;;1.55;1.30;;;;;;;;;;5073662;28;20214;-59
2022/04/21 10:15:01;;;;;;;3.28;1.50;;;;;;;;;;5073875;28;20017;-57
2022/04/21 10:17:27;;;;;;;1.98;1.25;;;;;;;;;;5073328;28;20039;-54
2022/04/21 10:19:53;;;;;;;2.08;1.15;;;;;;;;;;5072282;28;20028;-55
2022/04/21 10:22:19;;;;;;;2.28;1.35;;;;;;;;;;5072626;28;20477;-55
2022/04/21 10:24:46;;;;;;;2.50;1.15;;;;;;;;;;5072513;28;20050;-51
2022/04/21 10:27:31;;;;;;;2.25;1.20;;;;;;;;;;5072798;28;20138;-48
2022/04/21 10:29:57;;;;;;;2.72;1.40;;;;;;;;;;5072000;28;20076;-48
2022/04/21 10:32:43;;;;;;;1.70;1.10;;;;;;;;;;5072790;28;20100;-51
2022/04/21 10:35:24;;;;;;;2.85;1.50;;;;;;;;;;5071940;28;20120;-49
2022/04/21 10:38:09;;;;;;;4.55;1.13;;;;;;;;;;5071802;28;20120;-51
2022/04/21 10:40:53;;;;;;;2.53;1.25;;;;;;;;;;5072496;28;20036;-51
2022/04/21 10:43:19;;;;;;;2.20;1.27;;;;;;;;;;5072027;28;20078;-50
2022/04/21 10:46:02;;;;;;;1.45;0.80;;;;;;;;;;5072719;28;20029;-60
2022/04/21 10:48:46;;;;;;;2.88;0.95;;;;;;;;;;5072459;28;20032;-48
2022/04/21 10:51:12;;;;;;;2.85;1.50;;;;;;;;;;5071972;28;20041;-48
2022/04/21 11:00:04;;;;;;;4.53;1.30;;;;;;;;;;5072004;28;20516;-47
2022/04/21 11:02:40;;;;;;;2.65;1.20;;;;;;;;;;5071855;28;20029;-47
2022/04/21 11:05:33;;;;;;;2.97;1.30;;;;;;;;;;5071645;28;20031;-47
2022/04/21 11:08:03;;;;;;;1.83;0.90;;;;;;;;;;5069526;28;20037;-47
2022/04/21 11:10:38;;;;;;;2.85;1.00;;;;;;;;;;5072273;28;20168;-49
2022/04/21 11:13:08;;;;;;;3.30;1.73;;;;;;;;;;5070982;28;20374;-51
2022/04/21 11:15:47;;;;;;;3.50;1.08;;;;;;;;;;5071535;28;20382;-51
2022/04/21 11:18:14;;;;;;;2.53;1.23;;;;;;;;;;5071486;28;20118;-48
2022/04/21 11:20:46;;;;;;;5.07;1.30;;;;;;;;;;5071963;28;20025;-50
2022/04/21 11:23:25;;;;;;;5.70;1.00;;;;;;;;;;5071183;28;20025;-51
2022/04/21 11:25:52;;;;;;;2.05;1.35;;;;;;;;;;5071354;28;20047;-61
2022/04/21 11:28:24;;;;;;;2.75;1.13;;;;;;;;;;5072163;28;20045;-48
2022/04/21 11:30:56;;;;;;;2.90;1.02;;;;;;;;;;5071359;28;20031;-59
2022/04/21 11:33:22;;;;;;;2.83;1.05;;;;;;;;;;5071922;28;20020;-49
2022/04/21 11:35:48;;;;;;;5.00;1.80;;;;;;;;;;5071543;28;20363;-52
2022/04/21 11:38:14;;;;;;;2.28;0.88;;;;;;;;;;5071442;28;20035;-49
2022/04/21 11:40:41;;;;;;;3.17;1.15;;;;;;;;;;5071772;28;20025;-51
2022/04/21 11:43:17;;;;;;;2.40;1.23;;;;;;;;;;5070747;28;20033;-48
2022/04/21 11:45:54;;;;;;;1.77;0.90;;;;;;;;;;5069678;28;20420;-51
2022/04/21 11:48:20;;;;;;;2.25;1.00;;;;;;;;;;5071740;28;20040;-51
2022/04/21 11:50:49;;;;;;;2.40;1.10;;;;;;;;;;5070612;28;20024;-48
2022/04/21 11:53:20;;;;;;;1.23;0.95;;;;;;;;;;5070570;28;20481;-48
2022/04/21 11:55:46;;;;;;;1.65;1.20;;;;;;;;;;5070655;28;20051;-47
2022/04/21 11:58:13;;;;;;;1.88;1.15;;;;;;;;;;5070558;28;20638;-48
2022/04/21 12:06:32;;;;;;;3.65;0.90;;;;;;;;;;5055076;28;20897;-49
2022/04/21 12:08:58;;;;;;;1.27;1.17;;;;;;;;;;5054942;28;20029;-50
2022/04/21 12:11:24;;;;;;;3.70;0.95;;;;;;;;;;5073246;28;20077;-50
2022/04/21 12:13:51;;;;;;;3.28;1.10;;;;;;;;;;5075005;28;20082;-49
2022/04/21 12:16:36;;;;;;;2.55;0.80;;;;;;;;;;5074610;28;20040;-49
2022/04/21 12:19:21;;;;;;;3.33;1.00;;;;;;;;;;5074735;28;20037;-48
2022/04/21 12:21:58;;;;;;;1.02;0.77;;;;;;;;;;5075236;28;20028;-47
2022/04/21 12:24:43;;;;;;;1.80;1.08;;;;;;;;;;5074113;28;20027;-47
2022/04/21 12:27:12;;;;;;;1.13;0.80;;;;;;;;;;5074175;28;20048;-48
2022/04/21 12:29:51;;;;;;;3.67;1.52;;;;;;;;;;5075341;28;20029;-48
2022/04/21 12:32:20;;;;;;;1.17;0.80;;;;;;;;;;5074058;28;20028;-49
2022/04/21 12:34:46;;;;;;;2.85;1.48;;;;;;;;;;5075093;28;20032;-48
2022/04/21 12:37:12;;;;;;;2.72;1.00;;;;;;;;;;5074444;28;20055;-47
2022/04/21 12:39:38;;;;;;;1.13;0.77;;;;;;;;;;5075007;28;20473;-48
2022/04/21 12:42:05;;;;;;;1.15;0.90;;;;;;;;;;5073669;28;20029;-47
2022/04/21 12:44:32;;;;;;;0.88;0.70;;;;;;;;;;5074701;28;20032;-52
2022/04/21 12:47:03;;;;;;;1.92;1.10;;;;;;;;;;5073673;28;20020;-58
2022/04/21 12:49:47;;;;;;;2.90;1.00;;;;;;;;;;5075165;28;20405;-48
2022/04/21 12:52:13;;;;;;;3.05;0.80;;;;;;;;;;5073413;28;20025;-48
2022/04/21 12:54:40;;;;;;;1.92;0.90;;;;;;;;;;5074818;28;20039;-47
2022/04/21 12:57:07;;;;;;;1.38;0.80;;;;;;;;;;5074065;28;20024;-49
2022/04/21 12:59:33;;;;;;;0.80;0.80;;;;;;;;;;5074642;28;20028;-47
2022/04/21 13:01:59;;;;;;;1.48;1.15;;;;;;;;;;5073420;28;20347;-50
2022/04/21 13:04:25;;;;;;;1.35;0.90;;;;;;;;;;5074474;28;20032;-48
2022/04/21 13:06:51;;;;;;;2.00;0.70;;;;;;;;;;5074475;28;20457;-51
2022/04/21 13:09:17;;;;;;;2.92;1.65;;;;;;;;;;5073860;28;20111;-48
2022/04/21 13:11:43;;;;;;;1.85;1.00;;;;;;;;;;5073817;28;20475;-49
2022/04/21 13:14:09;;;;;;;0.73;0.65;;;;;;;;;;5072793;28;20155;-49
2022/04/21 13:16:35;;;;;;;1.92;0.85;;;;;;;;;;5073633;28;20024;-49
2022/04/21 13:19:01;;;;;;;1.77;0.75;;;;;;;;;;5073284;28;20032;-47
2022/04/21 13:24:12;;;;;;;2.35;0.90;;;;;;;;;;5073194;28;20064;-47
2022/04/21 13:26:38;;;;;;;1.00;0.70;;;;;;;;;;5073658;28;20056;-50
2022/04/21 13:29:06;;;;;;;1.00;0.80;;;;;;;;;;5073552;28;20033;-47
2022/04/21 13:34:16;;;;;;;3.03;1.00;;;;;;;;;;5072641;28;20036;-49
2022/04/21 13:36:42;;;;;;;0.93;0.60;;;;;;;;;;5073996;28;20481;-49
2022/04/21 13:39:08;;;;;;;2.30;0.80;;;;;;;;;;5073350;28;20025;-49
2022/04/21 13:41:35;;;;;;;1.77;0.80;;;;;;;;;;5074245;28;20020;-48
2022/04/21 13:44:01;;;;;;;1.08;0.85;;;;;;;;;;5072957;28;20456;-59
2022/04/21 13:46:28;;;;;;;0.65;0.55;;;;;;;;;;5073572;28;20029;-48
2022/04/21 13:48:54;;;;;;;1.10;0.77;;;;;;;;;;5073743;28;20021;-47
2022/04/21 13:51:21;;;;;;;1.27;1.10;;;;;;;;;;5073148;28;20031;-48
2022/04/21 13:53:46;;;;;;;0.70;0.60;;;;;;;;;;5072832;28;20420;-48
2022/04/21 13:56:13;;;;;;;0.90;0.60;;;;;;;;;;5070758;28;20028;-47
2022/04/21 13:58:39;;;;;;;1.20;0.70;;;;;;;;;;5073734;28;20024;-48
2022/04/21 14:01:05;;;;;;;1.05;0.90;;;;;;;;;;5072629;28;20448;-48
2022/04/21 14:03:36;;;;;;;0.70;0.60;;;;;;;;;;5073079;28;20025;-47
2022/04/21 14:06:06;;;;;;;3.70;0.60;;;;;;;;;;5072886;28;20097;-64
2022/04/21 14:08:34;;;;;;;0.80;0.70;;;;;;;;;;5073405;28;20021;-49
2022/04/21 14:11:00;;;;;;;1.92;0.68;;;;;;;;;;5072898;28;20477;-64
2022/04/21 14:13:26;;;;;;;1.13;0.93;;;;;;;;;;5072032;28;20025;-49
2022/04/21 14:15:52;;;;;;;1.73;1.10;;;;;;;;;;5072596;28;20528;-51
2022/04/21 14:18:18;;;;;;;4.00;0.82;;;;;;;;;;5070899;28;20115;-51
2022/04/21 14:20:44;;;;;;;1.20;0.68;;;;;;;;;;5072888;28;20040;-50
2022/04/21 14:23:10;;;;;;;4.63;1.00;;;;;;;;;;5072118;28;20023;-47
2022/04/21 14:25:36;;;;;;;2.15;0.85;;;;;;;;;;5072685;28;20016;-48
2022/04/21 14:28:02;;;;;;;1.10;0.80;;;;;;;;;;5071072;28;20074;-57
2022/04/21 14:30:28;;;;;;;2.15;0.60;;;;;;;;;;5072117;28;20043;-47
2022/04/21 14:32:55;;;;;;;3.88;1.35;;;;;;;;;;5072292;28;20051;-50
2022/04/21 14:35:24;;;;;;;0.70;0.60;;;;;;;;;;5071660;28;20099;-49
2022/04/21 14:46:06;;;;;;;7.63;1.10;;;;;;;;;;5068733;28;20031;-47
2022/04/21 14:48:32;;;;;;;4.28;1.05;;;;;;;;;;5071382;28;20031;-51
2022/04/21 14:50:59;;;;;;;7.72;1.02;;;;;;;;;;5071932;28;20458;-49
2022/04/21 14:53:25;;;;;;;2.15;1.42;;;;;;;;;;5071340;28;20044;-48
2022/04/21 14:55:52;;;;;;;2.30;1.00;;;;;;;;;;5071589;28;20040;-50
2022/04/21 14:58:18;;;;;;;3.90;0.70;;;;;;;;;;5071273;28;20059;-48
2022/04/21 15:00:44;;;;;;;8.48;1.00;;;;;;;;;;5072012;28;20027;-46
2022/04/21 15:03:12;;;;;;;5.10;1.10;;;;;;;;;;5071121;28;20029;-47
2022/04/21 15:05:38;;;;;;;3.50;1.70;;;;;;;;;;5071662;28;20098;-52
2022/04/21 15:08:05;;;;;;;2.90;0.98;;;;;;;;;;5071812;28;20086;-58
2022/04/21 15:10:44;;;;;;;8.38;1.92;;;;;;;;;;5072183;28;20033;-46
2022/04/21 15:13:11;;;;;;;6.57;1.55;;;;;;;;;;5070964;28;20492;-48
2022/04/21 15:15:38;;;;;;;4.70;1.48;;;;;;;;;;5071503;28;20036;-50
2022/04/21 15:18:05;;;;;;;6.00;1.38;;;;;;;;;;5071617;28;20017;-56
2022/04/21 15:20:31;;;;;;;6.70;1.60;;;;;;;;;;5071497;28;20020;-50
2022/04/21 15:22:57;;;;;;;4.55;1.45;;;;;;;;;;5072167;28;20472;-48
2022/04/21 15:25:23;;;;;;;5.13;1.13;;;;;;;;;;5070919;28;20044;-48
2022/04/21 15:27:51;;;;;;;9.38;1.50;;;;;;;;;;5071422;28;20049;-49
2022/04/21 15:30:17;;;;;;;5.68;1.67;;;;;;;;;;5071308;28;20025;-48
2022/04/21 15:32:43;;;;;;;5.20;1.85;;;;;;;;;;5072047;28;20032;-49
2022/04/21 15:35:09;;;;;;;4.70;1.45;;;;;;;;;;5070278;28;20032;-54
2022/04/21 15:37:35;;;;;;;6.07;1.70;;;;;;;;;;5072000;28;20417;-51
2022/04/21 15:40:02;;;;;;;8.00;1.92;;;;;;;;;;5071917;28;20143;-52
2022/04/21 15:42:28;;;;;;;3.10;1.20;;;;;;;;;;5069618;28;20115;-50
2022/04/21 15:44:54;;;;;;;5.22;1.33;;;;;;;;;;5071806;28;20158;-48
2022/04/21 15:47:20;;;;;;;4.22;1.10;;;;;;;;;;5071104;28;20024;-49
2022/04/21 15:49:46;;;;;;;6.30;1.20;;;;;;;;;;5071790;28;20037;-50